createdAt,value
2022-11-23T00:01:15.587Z,68.80
2022-11-23T00:03:43.621Z,68.97
2022-11-23T00:06:11.616Z,74.17
2022-11-23T00:08:39.871Z,73.13
2022-11-23T00:11:08.017Z,69.03
2022-11-23T00:13:36.435Z,71.07
2022-11-23T00:16:08.288Z,69.30
2022-11-23T00:18:36.414Z,68.13
2022-11-23T00:21:08.273Z,71.83
2022-11-23T00:23:36.549Z,77.50
2022-11-23T00:26:05.543Z,69.17
2022-11-23T00:28:34.955Z,72.13
2022-11-23T00:31:03.007Z,72.17
2022-11-23T00:33:32.340Z,73.33
2022-11-23T00:36:01.690Z,70.97
2022-11-23T00:38:30.036Z,65.70
2022-11-23T00:41:02.036Z,66.07
2022-11-23T00:43:30.653Z,71.37
2022-11-23T00:46:09.275Z,71.97
2022-11-23T00:48:38.863Z,77.33
2022-11-23T00:51:09.124Z,64.67
2022-11-23T00:53:37.509Z,67.90
2022-11-23T00:56:06.702Z,70.87
2022-11-23T00:58:34.942Z,65.57
2022-11-23T01:01:04.794Z,59.93
2022-11-23T01:03:33.080Z,62.20
2022-11-23T01:06:10.597Z,63.23
2022-11-23T01:08:39.172Z,65.23
2022-11-23T01:11:08.913Z,62.83
2022-11-23T01:13:37.784Z,69.73
2022-11-23T01:16:06.320Z,61.13
2022-11-23T01:18:34.281Z,58.00
2022-11-23T01:21:02.862Z,60.07
2022-11-23T01:23:32.518Z,59.57
2022-11-23T01:26:05.938Z,58.77
2022-11-23T01:28:34.653Z,55.97
2022-11-23T01:31:08.436Z,53.50
2022-11-23T01:33:37.526Z,60.50
2022-11-23T01:36:11.259Z,67.13
2022-11-23T01:38:40.778Z,58.97
2022-11-23T01:41:10.464Z,63.80
2022-11-23T01:43:38.425Z,61.57
2022-11-23T01:46:07.602Z,61.07
2022-11-23T01:48:40.333Z,59.63
2022-11-23T01:51:13.023Z,63.73
2022-11-23T01:53:43.485Z,67.53
2022-11-23T01:56:15.234Z,62.97
2022-11-23T01:58:47.190Z,69.40
2022-11-23T02:01:15.847Z,70.23
2022-11-23T02:03:45.480Z,71.93
2022-11-23T02:06:18.102Z,70.63
2022-11-23T02:08:48.477Z,62.97
2022-11-23T02:11:17.887Z,64.70
2022-11-23T02:13:48.319Z,73.97
2022-11-23T02:16:17.361Z,67.20
2022-11-23T02:18:48.802Z,70.77
2022-11-23T02:21:16.818Z,69.47
2022-11-23T02:23:53.840Z,72.70
2022-11-23T02:26:25.918Z,73.57
2022-11-23T02:28:58.338Z,80.57
2022-11-23T02:31:26.406Z,75.00
2022-11-23T02:33:54.383Z,74.57
2022-11-23T02:36:38.991Z,71.00
2022-11-23T02:39:09.993Z,69.87
2022-11-23T02:41:42.494Z,70.67
2022-11-23T02:44:20.350Z,73.63
2022-11-23T02:46:48.404Z,83.93
2022-11-23T02:49:16.409Z,81.37
2022-11-23T02:51:44.417Z,82.10
2022-11-23T02:54:12.409Z,76.23
2022-11-23T02:56:41.873Z,80.77
2022-11-23T02:59:10.210Z,80.47
2022-11-23T03:01:39.944Z,81.03
2022-11-23T03:04:07.958Z,75.63
2022-11-23T03:06:35.937Z,70.40
2022-11-23T03:09:04.254Z,69.73
2022-11-23T03:11:32.222Z,67.03
2022-11-23T03:14:01.756Z,71.00
2022-11-23T03:16:29.749Z,60.23
2022-11-23T03:18:57.763Z,58.27
2022-11-23T03:21:25.754Z,57.53
2022-11-23T03:23:53.711Z,59.47
2022-11-23T03:26:21.674Z,54.33
2022-11-23T03:28:49.697Z,49.23
2022-11-23T03:31:19.047Z,53.90
2022-11-23T03:33:47.048Z,54.67
2022-11-23T03:36:15.061Z,50.20
2022-11-23T03:38:43.042Z,63.67
2022-11-23T03:41:10.990Z,67.13
2022-11-23T03:43:38.963Z,76.53
2022-11-23T03:46:07.016Z,69.30
2022-11-23T03:48:36.334Z,64.33
2022-11-23T03:51:04.266Z,59.63
2022-11-23T03:53:32.235Z,63.93
2022-11-23T03:56:00.250Z,62.50
2022-11-23T03:58:28.313Z,59.17
2022-11-23T04:00:56.454Z,86.33
2022-11-23T04:03:24.455Z,90.20
2022-11-23T04:05:53.866Z,74.87
2022-11-23T04:08:21.973Z,70.10
2022-11-23T04:10:49.965Z,61.50
2022-11-23T04:13:17.945Z,69.43
2022-11-23T04:15:45.896Z,63.63
2022-11-23T04:18:13.864Z,66.93
2022-11-23T04:20:41.879Z,68.13
2022-11-23T04:23:13.604Z,76.70
2022-11-23T04:25:41.826Z,74.90
2022-11-23T04:28:10.155Z,71.50
2022-11-23T04:30:38.170Z,68.70
2022-11-23T04:33:06.258Z,73.03
2022-11-23T04:35:34.961Z,65.17
2022-11-23T04:38:02.930Z,70.13
2022-11-23T04:40:32.358Z,70.43
2022-11-23T04:43:01.780Z,66.00
2022-11-23T04:45:29.952Z,69.27
2022-11-23T04:47:57.912Z,70.33
2022-11-23T04:50:25.886Z,63.67
2022-11-23T04:52:53.969Z,73.57
2022-11-23T04:55:21.965Z,68.70
2022-11-23T04:57:51.275Z,61.20
2022-11-23T05:00:19.635Z,71.97
2022-11-23T05:02:47.618Z,62.67
2022-11-23T05:05:15.677Z,60.40
2022-11-23T05:07:43.685Z,60.83
2022-11-23T05:10:12.118Z,62.30
2022-11-23T05:12:40.104Z,61.80
2022-11-23T05:15:12.742Z,65.30
2022-11-23T05:17:40.716Z,67.50
2022-11-23T05:20:10.055Z,61.63
2022-11-23T05:22:38.017Z,65.30
2022-11-23T05:25:06.860Z,62.80
2022-11-23T05:27:35.237Z,62.97
2022-11-23T05:30:03.350Z,60.50
2022-11-23T05:32:32.647Z,49.80
2022-11-23T05:35:00.578Z,51.07
2022-11-23T05:37:28.549Z,59.00
2022-11-23T05:39:56.514Z,54.13
2022-11-23T05:42:24.505Z,54.20
2022-11-23T05:44:52.498Z,60.67
2022-11-23T05:47:20.451Z,53.93
2022-11-23T05:49:50.469Z,59.90
2022-11-23T05:52:18.773Z,54.93
2022-11-23T05:54:46.783Z,56.20
2022-11-23T05:57:15.817Z,53.27
2022-11-23T05:59:43.775Z,60.23
2022-11-23T06:02:11.781Z,57.70
2022-11-23T06:04:39.739Z,53.47
2022-11-23T06:07:09.124Z,58.80
2022-11-23T06:09:37.155Z,60.27
2022-11-23T06:12:05.490Z,63.70
2022-11-23T06:14:33.468Z,61.00
2022-11-23T06:17:01.429Z,56.30
2022-11-23T06:19:30.513Z,58.13
2022-11-23T06:21:58.931Z,58.50
2022-11-23T06:24:28.349Z,61.83
2022-11-23T06:26:56.416Z,57.57
2022-11-23T06:29:24.375Z,66.67
2022-11-23T06:31:52.420Z,60.95
2022-11-23T06:34:20.376Z,58.07
2022-11-23T06:36:48.358Z,57.43
2022-11-23T06:39:16.367Z,56.53
2022-11-23T06:41:45.715Z,55.03
2022-11-23T06:44:13.711Z,53.40
2022-11-23T06:46:41.676Z,54.27
2022-11-23T06:49:09.779Z,59.10
2022-11-23T06:51:37.859Z,58.23
2022-11-23T06:54:06.021Z,64.03
2022-11-23T06:56:33.954Z,55.73
2022-11-23T06:59:03.282Z,57.60
2022-11-23T07:01:32.825Z,60.33
2022-11-23T07:04:01.040Z,58.53
2022-11-23T07:06:29.911Z,66.10
2022-11-23T07:08:58.694Z,63.27
2022-11-23T07:11:26.676Z,56.73
2022-11-23T07:13:54.926Z,62.47
2022-11-23T07:16:24.830Z,66.20
2022-11-23T07:18:52.916Z,63.87
2022-11-23T07:21:20.895Z,65.50
2022-11-23T07:23:48.870Z,60.07
2022-11-23T07:26:16.857Z,63.27
2022-11-23T07:28:44.856Z,66.33
2022-11-23T07:31:15.972Z,61.30
2022-11-23T07:33:46.671Z,59.10
2022-11-23T07:36:14.875Z,69.50
2022-11-23T07:38:43.103Z,54.50
2022-11-23T07:41:11.338Z,60.00
2022-11-23T07:43:39.364Z,62.40
2022-11-23T07:46:07.561Z,61.77
2022-11-23T07:48:36.664Z,63.43
2022-11-23T07:51:06.409Z,54.00
2022-11-23T07:53:35.988Z,56.80
2022-11-23T07:56:04.678Z,61.93
2022-11-23T07:58:33.618Z,64.33
2022-11-23T08:01:01.589Z,66.57
2022-11-23T08:03:30.073Z,67.07
2022-11-23T08:05:58.628Z,65.60
2022-11-23T08:08:28.076Z,60.70
2022-11-23T08:10:56.401Z,71.97
2022-11-23T08:13:24.507Z,64.67
2022-11-23T08:15:55.371Z,69.60
2022-11-23T08:18:24.054Z,61.10
2022-11-23T08:20:52.120Z,61.23
2022-11-23T08:23:20.825Z,54.73
2022-11-23T08:25:50.613Z,49.70
2022-11-23T08:28:18.855Z,49.60
2022-11-23T08:30:47.172Z,45.07
2022-11-23T08:33:15.594Z,53.00
2022-11-23T08:35:44.236Z,50.50
2022-11-23T08:38:13.701Z,49.83
2022-11-23T08:40:42.342Z,49.50
2022-11-23T08:43:11.742Z,52.40
2022-11-23T08:45:39.734Z,46.70
2022-11-23T08:48:08.834Z,49.83
2022-11-23T08:50:37.207Z,45.07
2022-11-23T08:53:05.739Z,44.27
2022-11-23T08:55:33.813Z,50.37
2022-11-23T08:58:02.038Z,51.17
2022-11-23T09:00:31.442Z,49.27
2022-11-23T09:03:00.138Z,46.77
2022-11-23T09:05:28.773Z,51.13
2022-11-23T09:07:57.914Z,51.13
2022-11-23T09:10:25.978Z,41.80
2022-11-23T09:12:53.995Z,42.93
2022-11-23T09:15:22.511Z,44.27
2022-11-23T09:17:52.366Z,39.10
2022-11-23T09:20:20.689Z,40.90
2022-11-23T09:22:53.471Z,40.90
2022-11-23T09:25:22.708Z,39.40
2022-11-23T09:27:51.315Z,40.80
2022-11-23T09:30:19.451Z,37.27
2022-11-23T09:32:47.419Z,40.43
2022-11-23T09:35:16.880Z,39.60
2022-11-23T09:37:44.850Z,38.07
2022-11-23T09:40:17.231Z,42.43
2022-11-23T09:43:10.021Z,39.87
2022-11-23T09:45:45.735Z,39.43
2022-11-23T09:48:27.147Z,41.00
2022-11-23T09:51:02.178Z,43.63
2022-11-23T09:53:35.197Z,36.43
2022-11-23T09:56:03.502Z,35.23
2022-11-23T09:58:39.260Z,37.00
2022-11-23T10:01:12.552Z,34.37
2022-11-23T10:03:48.288Z,33.50
2022-11-23T10:06:22.290Z,38.97
2022-11-23T10:09:07.919Z,39.23
2022-11-23T10:12:05.442Z,37.90
2022-11-23T10:14:52.356Z,35.37
2022-11-23T10:17:32.963Z,36.33
2022-11-23T10:20:18.637Z,38.67
2022-11-23T10:22:54.251Z,36.97
2022-11-23T10:25:24.042Z,35.23
2022-11-23T10:27:57.536Z,35.53
2022-11-23T10:30:25.505Z,34.17
2022-11-23T10:32:59.699Z,31.53
2022-11-23T10:35:31.014Z,37.77
2022-11-23T10:38:18.693Z,36.90
2022-11-23T10:40:58.756Z,36.77
2022-11-23T10:43:31.271Z,32.70
2022-11-23T10:46:32.764Z,33.90
2022-11-23T10:49:18.547Z,36.90
2022-11-23T10:51:55.849Z,32.00
2022-11-23T10:54:30.355Z,37.37
2022-11-23T10:57:00.320Z,36.83
2022-11-23T10:59:37.476Z,34.30
2022-11-23T11:02:22.317Z,37.23
2022-11-23T11:04:57.350Z,34.17
2022-11-23T11:07:29.608Z,30.20
2022-11-23T11:10:00.532Z,37.47
2022-11-23T11:12:30.697Z,37.27
2022-11-23T11:15:11.375Z,33.47
2022-11-23T11:17:41.985Z,37.03
2022-11-23T11:20:31.503Z,36.23
2022-11-23T11:23:01.117Z,38.13
2022-11-23T11:25:34.050Z,33.73
2022-11-23T11:28:03.819Z,33.50
2022-11-23T11:30:42.913Z,36.53
2022-11-23T11:33:15.800Z,33.43
2022-11-23T11:35:48.225Z,33.13
2022-11-23T11:38:21.172Z,33.60
2022-11-23T11:40:52.223Z,35.10
2022-11-23T11:43:32.305Z,35.83
2022-11-23T11:49:05.573Z,42.10
2022-11-23T11:51:38.097Z,41.33
2022-11-23T11:54:14.555Z,41.57
2022-11-23T11:56:46.938Z,38.67
2022-11-23T11:59:21.257Z,33.70
2022-11-23T12:01:58.016Z,33.93
2022-11-23T12:04:32.604Z,33.07
2022-11-23T12:07:06.896Z,29.17
2022-11-23T12:09:41.712Z,37.83
2022-11-23T12:12:17.190Z,37.10
2022-11-23T12:14:46.745Z,34.27
2022-11-23T12:17:37.323Z,34.13
2022-11-23T12:20:11.844Z,39.63
2022-11-23T12:22:52.452Z,38.10
2022-11-23T12:25:33.137Z,36.00
2022-11-23T12:28:17.033Z,32.40
2022-11-23T12:30:52.353Z,39.23
2022-11-23T12:36:40.304Z,40.00
2022-11-23T12:39:23.176Z,33.13
2022-11-23T12:41:57.772Z,32.30
2022-11-23T12:44:49.238Z,37.83
2022-11-23T12:47:30.958Z,34.63
2022-11-23T12:50:06.701Z,38.63
2022-11-23T12:52:49.716Z,36.57
2022-11-23T12:55:24.055Z,40.50
2022-11-23T12:57:57.497Z,41.17
2022-11-23T13:00:32.535Z,41.70
2022-11-23T13:03:30.318Z,38.63
2022-11-23T13:06:34.150Z,37.93
2022-11-23T13:09:24.660Z,36.53
2022-11-23T13:12:14.200Z,38.57
2022-11-23T13:14:47.868Z,37.33
2022-11-23T13:17:32.132Z,37.37
2022-11-23T13:20:21.943Z,39.60
2022-11-23T13:22:51.638Z,39.57
2022-11-23T13:25:25.360Z,42.87
2022-11-23T13:28:01.579Z,49.47
2022-11-23T13:30:51.815Z,43.20
2022-11-23T13:33:37.599Z,49.27
2022-11-23T13:36:11.430Z,40.00
2022-11-23T13:38:43.445Z,44.23
2022-11-23T13:41:57.205Z,37.77
2022-11-23T13:44:28.443Z,42.90
2022-11-23T13:47:05.600Z,41.53
2022-11-23T13:49:40.961Z,42.67
2022-11-23T13:52:31.236Z,45.37
2022-11-23T13:55:09.685Z,39.63
2022-11-23T13:57:39.244Z,45.10
2022-11-23T14:00:45.119Z,43.37
2022-11-23T14:03:51.457Z,42.20
2022-11-23T14:06:34.792Z,47.37
2022-11-23T14:09:07.744Z,50.17
2022-11-23T14:11:41.461Z,44.83
2022-11-23T14:14:19.786Z,52.97
2022-11-23T14:17:24.801Z,44.37
2022-11-23T14:20:15.245Z,42.60
2022-11-23T14:22:57.364Z,36.63
2022-11-23T14:25:40.362Z,40.13
2022-11-23T14:28:24.964Z,46.83
2022-11-23T14:31:07.454Z,47.03
2022-11-23T14:33:45.956Z,44.70
2022-11-23T14:36:26.489Z,41.83
2022-11-23T14:39:38.631Z,43.37
2022-11-23T14:42:13.124Z,43.83
2022-11-23T14:44:42.711Z,41.37
2022-11-23T14:47:12.271Z,37.27
2022-11-23T14:49:50.578Z,37.63
2022-11-23T14:52:21.365Z,43.03
2022-11-23T14:54:52.799Z,43.70
2022-11-23T14:57:23.700Z,39.20
2022-11-23T14:59:55.973Z,44.27
2022-11-23T15:02:28.307Z,36.77
2022-11-23T15:05:03.785Z,39.90
2022-11-23T15:07:48.090Z,41.73
2022-11-23T15:10:29.242Z,39.30
2022-11-23T15:12:57.341Z,40.23
2022-11-23T15:15:27.681Z,42.00
2022-11-23T15:17:57.119Z,38.67
2022-11-23T15:20:29.829Z,39.70
2022-11-23T15:22:57.892Z,38.77
2022-11-23T15:25:28.274Z,41.07
2022-11-23T15:27:56.601Z,41.83
2022-11-23T15:30:30.943Z,42.47
2022-11-23T15:33:01.126Z,46.53
2022-11-23T15:35:33.769Z,39.63
2022-11-23T15:38:03.703Z,43.10
2022-11-23T15:40:36.304Z,44.27
2022-11-23T15:43:04.769Z,48.70
2022-11-23T15:45:38.684Z,47.20
2022-11-23T15:48:11.574Z,44.40
2022-11-23T15:50:48.284Z,46.97
2022-11-23T15:53:16.429Z,43.93
2022-11-23T15:55:46.216Z,43.60
2022-11-23T15:58:18.365Z,44.07
2022-11-23T16:00:50.906Z,58.53
2022-11-23T16:03:28.173Z,49.90
2022-11-23T16:06:15.951Z,52.83
2022-11-23T16:08:43.951Z,53.73
2022-11-23T16:11:32.739Z,56.73
2022-11-23T16:14:14.966Z,48.20
2022-11-23T16:16:46.049Z,49.37
2022-11-23T16:19:30.687Z,42.83
2022-11-23T16:22:02.892Z,50.00
2022-11-23T16:24:34.055Z,46.00
2022-11-23T16:27:13.736Z,37.53
2022-11-23T16:29:42.254Z,41.40
2022-11-23T16:32:24.333Z,44.67
2022-11-23T16:34:52.489Z,52.57
2022-11-23T16:37:21.018Z,57.93
2022-11-23T16:39:49.151Z,55.83
2022-11-23T16:42:18.907Z,50.60
2022-11-23T16:44:46.862Z,59.83
2022-11-23T16:47:26.070Z,48.03
2022-11-23T16:49:57.113Z,52.00
2022-11-23T16:52:25.506Z,52.03
2022-11-23T16:54:53.890Z,48.47
2022-11-23T16:57:29.967Z,58.43
2022-11-23T16:59:58.547Z,51.80
2022-11-23T17:02:26.653Z,53.90
2022-11-23T17:04:54.982Z,49.70
2022-11-23T17:07:23.167Z,48.67
2022-11-23T17:09:51.188Z,50.67
2022-11-23T17:12:20.922Z,42.13
2022-11-23T17:14:51.308Z,44.93
2022-11-23T17:17:22.154Z,41.53
2022-11-23T17:19:51.365Z,41.90
2022-11-23T17:22:20.455Z,41.83
2022-11-23T17:24:49.450Z,45.50
2022-11-23T17:27:20.038Z,47.77
2022-11-23T17:29:52.484Z,47.23
2022-11-23T17:32:20.430Z,44.60
2022-11-23T17:34:48.419Z,44.63
2022-11-23T17:37:19.851Z,46.63
2022-11-23T17:39:48.034Z,41.40
2022-11-23T17:42:16.316Z,40.37
2022-11-23T17:44:44.556Z,44.60
2022-11-23T17:47:28.653Z,51.50
2022-11-23T17:49:57.347Z,48.20
2022-11-23T17:52:25.879Z,43.27
2022-11-23T17:54:53.901Z,47.57
2022-11-23T17:57:25.597Z,58.93
2022-11-23T17:59:55.123Z,49.00
2022-11-23T18:02:25.409Z,54.67
2022-11-23T18:04:53.377Z,53.27
2022-11-23T18:07:21.399Z,54.47
2022-11-23T18:09:50.343Z,58.37
2022-11-23T18:12:19.314Z,57.87
2022-11-23T18:14:47.392Z,53.87
2022-11-23T18:17:16.062Z,58.57
2022-11-23T18:19:45.398Z,49.57
2022-11-23T18:22:13.395Z,53.93
2022-11-23T18:24:41.378Z,57.80
2022-11-23T18:27:09.404Z,58.90
2022-11-23T18:29:37.823Z,58.50
2022-11-23T18:32:06.736Z,51.97
2022-11-23T18:34:34.706Z,51.20
2022-11-23T18:37:04.063Z,45.33
2022-11-23T18:39:32.453Z,51.83
2022-11-23T18:42:05.514Z,45.60
2022-11-23T18:44:34.106Z,44.27
2022-11-23T18:47:02.118Z,43.33
2022-11-23T18:49:30.321Z,41.83
2022-11-23T18:51:58.687Z,41.33
2022-11-23T18:54:28.075Z,40.83
2022-11-23T18:56:56.059Z,43.37
2022-11-23T19:02:12.457Z,46.17
2022-11-23T19:04:40.588Z,45.80
2022-11-23T19:07:09.270Z,49.53
2022-11-23T19:09:38.708Z,50.27
2022-11-23T19:12:07.297Z,48.83
2022-11-23T19:14:35.308Z,48.77
2022-11-23T19:17:03.529Z,47.20
2022-11-23T19:19:32.055Z,49.60
2022-11-23T19:22:00.860Z,51.90
2022-11-23T19:24:28.834Z,56.40
2022-11-23T19:26:58.257Z,49.17
2022-11-23T19:29:26.964Z,51.20
2022-11-23T19:31:55.302Z,49.53
2022-11-23T19:34:23.459Z,65.07
2022-11-23T19:36:51.425Z,76.37
2022-11-23T19:39:19.495Z,65.97
2022-11-23T19:41:48.315Z,58.90
2022-11-23T19:44:17.808Z,56.77
2022-11-23T19:46:45.907Z,55.83
2022-11-23T19:49:13.906Z,54.47
2022-11-23T19:51:41.916Z,60.00
2022-11-23T19:54:10.349Z,77.87
2022-11-23T19:56:38.622Z,61.73
2022-11-23T19:59:06.917Z,63.93
2022-11-23T20:01:36.449Z,52.77
2022-11-23T20:04:09.437Z,46.33
2022-11-23T20:06:39.565Z,46.30
2022-11-23T20:09:09.351Z,42.73
2022-11-23T20:11:40.037Z,42.30
2022-11-23T20:14:08.459Z,43.33
2022-11-23T20:16:37.873Z,47.07
2022-11-23T20:19:07.785Z,43.57
2022-11-23T20:21:36.858Z,53.67
2022-11-23T20:24:07.011Z,46.87
2022-11-23T20:26:36.658Z,46.53
2022-11-23T20:29:05.943Z,42.57
2022-11-23T20:31:34.947Z,47.03
2022-11-23T20:34:07.390Z,45.03
2022-11-23T20:36:37.871Z,50.93
2022-11-23T20:39:08.397Z,47.70
2022-11-23T20:41:38.025Z,47.97
2022-11-23T20:44:07.891Z,47.60
2022-11-23T20:47:00.566Z,47.20
2022-11-23T20:49:25.236Z,52.23
2022-11-23T20:51:53.233Z,54.13
2022-11-23T20:54:21.200Z,47.80
2022-11-23T20:56:49.151Z,47.60
2022-11-23T20:59:17.327Z,46.97
2022-11-23T21:01:45.445Z,43.77
2022-11-23T21:04:13.523Z,45.80
2022-11-23T21:06:42.818Z,46.57
2022-11-23T21:09:11.227Z,47.13
2022-11-23T21:11:56.728Z,50.33
2022-11-23T21:14:27.812Z,44.17
2022-11-23T21:16:58.373Z,42.07
2022-11-23T21:19:28.218Z,42.47
2022-11-23T21:21:58.899Z,42.63
2022-11-23T21:24:27.244Z,47.07
2022-11-23T21:26:55.298Z,45.83
2022-11-23T21:29:23.838Z,48.50
2022-11-23T21:31:51.980Z,47.10
2022-11-23T21:34:21.882Z,49.13
2022-11-23T21:36:50.486Z,42.83
2022-11-23T21:39:20.439Z,47.50
2022-11-23T21:41:50.947Z,46.70
2022-11-23T21:44:19.303Z,41.53
2022-11-23T21:46:47.668Z,50.50
2022-11-23T21:49:15.715Z,49.57
2022-11-23T21:51:44.608Z,51.57
2022-11-23T21:54:15.406Z,54.97
2022-11-23T21:56:45.695Z,51.80
2022-11-23T21:59:14.598Z,54.37
2022-11-23T22:10:58.222Z,52.27
2022-11-23T22:13:32.692Z,45.43
2022-11-23T22:16:13.041Z,46.40
2022-11-23T22:18:41.487Z,50.87
2022-11-23T22:21:10.281Z,47.87
2022-11-23T22:23:38.753Z,43.40
2022-11-23T22:26:09.859Z,43.17
2022-11-23T22:28:42.063Z,57.67
2022-11-23T22:31:12.352Z,67.63
2022-11-23T22:33:41.500Z,62.17
2022-11-23T22:36:12.295Z,51.23
2022-11-23T22:38:41.281Z,50.00
2022-11-23T22:41:11.557Z,47.90
2022-11-23T22:43:41.389Z,47.80
2022-11-23T22:46:12.112Z,50.03
2022-11-23T22:48:41.602Z,51.03
2022-11-23T22:51:12.386Z,56.60
2022-11-23T22:53:44.691Z,50.97
2022-11-23T22:56:15.015Z,47.80
2022-11-23T22:58:45.728Z,45.73
2022-11-23T23:01:15.728Z,47.77
2022-11-23T23:03:44.488Z,49.20
2022-11-23T23:06:17.132Z,51.57
2022-11-23T23:08:45.860Z,47.40
2022-11-23T23:11:15.416Z,41.67
2022-11-23T23:13:45.232Z,49.37
2022-11-23T23:16:14.603Z,43.30
2022-11-23T23:18:43.920Z,46.20
2022-11-23T23:21:14.590Z,51.60
2022-11-23T23:23:45.526Z,45.20
2022-11-23T23:26:15.010Z,46.13
2022-11-23T23:28:45.007Z,44.13
2022-11-23T23:31:16.380Z,40.53
2022-11-23T23:33:45.978Z,43.00
2022-11-23T23:36:16.616Z,45.97
2022-11-23T23:38:45.645Z,41.47
2022-11-23T23:41:14.677Z,47.67
2022-11-23T23:43:44.697Z,46.47
2022-11-23T23:46:14.577Z,44.07
2022-11-23T23:48:43.224Z,41.80
2022-11-23T23:51:14.489Z,44.03
2022-11-23T23:53:43.537Z,46.07
2022-11-23T23:56:15.406Z,45.23
2022-11-23T23:58:45.669Z,39.60
